Terminal Aerodrome Forecast
Issued by NWS Lake Charles, LA

Home | Current Version | Previous Version | Text Only | Print | Product List | Glossary On
Versions: 1 2 3 4 5 6 7 8 9 10 11 12 13 14
000
FTUS44 KLCH 061120
TAFLCH
TAF
KLCH 061120Z 0612/0712 10008KT P6SM SCT025 BKN250
     FM061600 14011KT P6SM SCT040 BKN250
     FM070100 14005KT P6SM SCT025 BKN250
     FM070900 14005KT P6SM BKN025=

USA.gov is the U.S. government's official web portal to all federal, state and local government web resources and services.